Griffith, Mississippi
Current Conditions -  °F | °C
As of 4:45 PM on Monday 20 Oct 2014 (Local Time) from KGTR Reporting Station
Clear Clear  
Wind Chill: 75°   Ceiling: Unl
Heat Index: 75°   Visibility: 10mi
Dew Point: 48°   Wind: 5mph
Humidity: 38%   Direction: 340°NNW
Pressure: 30"   Gusts: NA
Location:  33.6258°N, 88.8428°W
Report Text: KGTR 202145Z 34004KT 10SM SKC 24/09 A3000
Loading
Personal Weather Stations






























Interactive Weather Map
Tropical Storm Tracking
New forecast layout! Learn more

10-Day Weather Forecast

Advertisements
Track Severe Weather on mobile